sensor_id;sensor_type;location;lat;lon;timestamp;P1;durP1;ratioP1;P2;durP2;ratioP2
2838;SDS011;1427;48.510;9.060;2024-03-22T00:01:47;56.40;;;4.63;;
2838;SDS011;1427;48.510;9.060;2024-03-22T00:04:13;47.97;;;4.00;;
2838;SDS011;1427;48.510;9.060;2024-03-22T00:06:41;51.37;;;4.17;;
2838;SDS011;1427;48.510;9.060;2024-03-22T00:09:09;48.70;;;3.60;;
2838;SDS011;1427;48.510;9.060;2024-03-22T00:11:36;49.60;;;3.60;;
2838;SDS011;1427;48.510;9.060;2024-03-22T00:14:02;62.23;;;4.10;;
2838;SDS011;1427;48.510;9.060;2024-03-22T00:16:29;48.63;;;3.73;;
2838;SDS011;1427;48.510;9.060;2024-03-22T00:18:55;53.00;;;4.97;;
2838;SDS011;1427;48.510;9.060;2024-03-22T00:21:23;51.33;;;4.87;;
2838;SDS011;1427;48.510;9.060;2024-03-22T00:23:49;51.50;;;4.27;;
2838;SDS011;1427;48.510;9.060;2024-03-22T00:26:19;48.73;;;3.90;;
2838;SDS011;1427;48.510;9.060;2024-03-22T00:28:45;49.67;;;3.70;;
2838;SDS011;1427;48.510;9.060;2024-03-22T00:31:12;48.13;;;3.93;;
2838;SDS011;1427;48.510;9.060;2024-03-22T00:33:38;49.83;;;3.80;;
2838;SDS011;1427;48.510;9.060;2024-03-22T00:36:06;56.50;;;5.30;;
2838;SDS011;1427;48.510;9.060;2024-03-22T00:38:33;49.60;;;3.63;;
2838;SDS011;1427;48.510;9.060;2024-03-22T00:41:00;50.97;;;4.53;;
2838;SDS011;1427;48.510;9.060;2024-03-22T00:43:27;49.30;;;4.20;;
2838;SDS011;1427;48.510;9.060;2024-03-22T00:45:54;49.70;;;3.77;;
2838;SDS011;1427;48.510;9.060;2024-03-22T00:48:21;48.73;;;3.83;;
2838;SDS011;1427;48.510;9.060;2024-03-22T00:50:48;50.00;;;3.40;;
2838;SDS011;1427;48.510;9.060;2024-03-22T00:53:14;47.97;;;3.83;;
2838;SDS011;1427;48.510;9.060;2024-03-22T00:55:42;50.93;;;3.77;;
2838;SDS011;1427;48.510;9.060;2024-03-22T00:58:08;48.27;;;3.50;;
2838;SDS011;1427;48.510;9.060;2024-03-22T01:00:36;48.10;;;3.93;;
2838;SDS011;1427;48.510;9.060;2024-03-22T01:03:03;55.43;;;4.10;;
2838;SDS011;1427;48.510;9.060;2024-03-22T01:05:31;51.20;;;4.30;;
2838;SDS011;1427;48.510;9.060;2024-03-22T01:07:57;50.60;;;4.50;;
2838;SDS011;1427;48.510;9.060;2024-03-22T01:10:24;49.67;;;3.70;;
2838;SDS011;1427;48.510;9.060;2024-03-22T01:12:50;49.53;;;3.73;;
2838;SDS011;1427;48.510;9.060;2024-03-22T01:15:17;57.63;;;4.27;;
2838;SDS011;1427;48.510;9.060;2024-03-22T01:17:45;49.10;;;3.10;;
2838;SDS011;1427;48.510;9.060;2024-03-22T01:20:15;48.77;;;3.33;;
2838;SDS011;1427;48.510;9.060;2024-03-22T01:22:41;49.00;;;3.03;;
2838;SDS011;1427;48.510;9.060;2024-03-22T01:25:08;51.60;;;3.60;;
2838;SDS011;1427;48.510;9.060;2024-03-22T01:27:34;49.27;;;4.13;;
2838;SDS011;1427;48.510;9.060;2024-03-22T01:30:02;52.63;;;3.43;;
2838;SDS011;1427;48.510;9.060;2024-03-22T01:32:28;48.80;;;3.30;;
2838;SDS011;1427;48.510;9.060;2024-03-22T01:34:57;50.23;;;4.97;;
2838;SDS011;1427;48.510;9.060;2024-03-22T01:37:23;47.80;;;3.27;;
2838;SDS011;1427;48.510;9.060;2024-03-22T01:39:51;49.10;;;3.07;;
2838;SDS011;1427;48.510;9.060;2024-03-22T01:42:17;47.30;;;3.07;;
2838;SDS011;1427;48.510;9.060;2024-03-22T01:44:44;49.13;;;4.97;;
2838;SDS011;1427;48.510;9.060;2024-03-22T01:47:10;51.37;;;3.70;;
2838;SDS011;1427;48.510;9.060;2024-03-22T01:49:38;48.60;;;3.33;;
2838;SDS011;1427;48.510;9.060;2024-03-22T01:52:06;47.47;;;2.73;;
2838;SDS011;1427;48.510;9.060;2024-03-22T01:54:33;49.13;;;3.80;;
2838;SDS011;1427;48.510;9.060;2024-03-22T01:56:59;47.97;;;3.43;;
2838;SDS011;1427;48.510;9.060;2024-03-22T01:59:27;47.77;;;3.47;;
2838;SDS011;1427;48.510;9.060;2024-03-22T02:01:54;47.07;;;2.80;;
2838;SDS011;1427;48.510;9.060;2024-03-22T02:04:21;47.67;;;3.43;;
2838;SDS011;1427;48.510;9.060;2024-03-22T02:06:47;49.60;;;3.27;;
2838;SDS011;1427;48.510;9.060;2024-03-22T02:09:15;48.07;;;2.97;;
2838;SDS011;1427;48.510;9.060;2024-03-22T02:11:43;50.90;;;4.10;;
2838;SDS011;1427;48.510;9.060;2024-03-22T02:14:10;49.60;;;3.60;;
2838;SDS011;1427;48.510;9.060;2024-03-22T02:16:36;48.47;;;3.53;;
2838;SDS011;1427;48.510;9.060;2024-03-22T02:19:06;48.87;;;3.60;;
2838;SDS011;1427;48.510;9.060;2024-03-22T02:21:38;50.90;;;3.60;;
2838;SDS011;1427;48.510;9.060;2024-03-22T02:24:07;48.67;;;3.40;;
2838;SDS011;1427;48.510;9.060;2024-03-22T02:26:33;49.10;;;4.80;;
2838;SDS011;1427;48.510;9.060;2024-03-22T02:29:00;50.70;;;3.07;;
2838;SDS011;1427;48.510;9.060;2024-03-22T02:31:26;47.93;;;3.03;;
2838;SDS011;1427;48.510;9.060;2024-03-22T02:33:53;50.37;;;4.03;;
2838;SDS011;1427;48.510;9.060;2024-03-22T02:36:19;49.07;;;4.10;;
2838;SDS011;1427;48.510;9.060;2024-03-22T02:38:46;47.50;;;3.40;;
2838;SDS011;1427;48.510;9.060;2024-03-22T02:41:13;47.30;;;3.00;;
2838;SDS011;1427;48.510;9.060;2024-03-22T02:43:40;47.17;;;3.00;;
2838;SDS011;1427;48.510;9.060;2024-03-22T02:46:06;49.30;;;3.03;;
2838;SDS011;1427;48.510;9.060;2024-03-22T02:48:34;48.70;;;3.47;;
2838;SDS011;1427;48.510;9.060;2024-03-22T02:51:00;53.60;;;4.07;;
2838;SDS011;1427;48.510;9.060;2024-03-22T02:53:27;47.20;;;3.07;;
2838;SDS011;1427;48.510;9.060;2024-03-22T02:55:53;50.87;;;3.80;;
2838;SDS011;1427;48.510;9.060;2024-03-22T02:58:22;47.90;;;3.37;;
2838;SDS011;1427;48.510;9.060;2024-03-22T03:00:48;51.57;;;4.60;;
2838;SDS011;1427;48.510;9.060;2024-03-22T03:03:15;51.90;;;3.30;;
2838;SDS011;1427;48.510;9.060;2024-03-22T03:05:41;48.50;;;3.17;;
2838;SDS011;1427;48.510;9.060;2024-03-22T03:08:09;48.97;;;3.13;;
2838;SDS011;1427;48.510;9.060;2024-03-22T03:10:35;52.40;;;3.00;;
2838;SDS011;1427;48.510;9.060;2024-03-22T03:13:02;49.70;;;4.30;;
2838;SDS011;1427;48.510;9.060;2024-03-22T03:15:30;52.83;;;2.93;;
2838;SDS011;1427;48.510;9.060;2024-03-22T03:17:57;46.53;;;2.40;;
2838;SDS011;1427;48.510;9.060;2024-03-22T03:20:23;46.50;;;3.03;;
2838;SDS011;1427;48.510;9.060;2024-03-22T03:22:51;54.63;;;3.20;;
2838;SDS011;1427;48.510;9.060;2024-03-22T03:25:17;48.97;;;4.00;;
2838;SDS011;1427;48.510;9.060;2024-03-22T03:27:44;48.60;;;3.50;;
2838;SDS011;1427;48.510;9.060;2024-03-22T03:30:11;49.60;;;4.17;;
2838;SDS011;1427;48.510;9.060;2024-03-22T03:32:39;48.47;;;3.60;;
2838;SDS011;1427;48.510;9.060;2024-03-22T03:35:05;47.37;;;3.20;;
2838;SDS011;1427;48.510;9.060;2024-03-22T03:37:33;48.37;;;3.40;;
2838;SDS011;1427;48.510;9.060;2024-03-22T03:39:59;49.17;;;2.87;;
2838;SDS011;1427;48.510;9.060;2024-03-22T03:42:26;48.17;;;3.60;;
2838;SDS011;1427;48.510;9.060;2024-03-22T03:44:52;49.43;;;3.50;;
2838;SDS011;1427;48.510;9.060;2024-03-22T03:47:19;53.23;;;3.50;;
2838;SDS011;1427;48.510;9.060;2024-03-22T03:49:46;51.00;;;3.00;;
2838;SDS011;1427;48.510;9.060;2024-03-22T03:52:14;51.13;;;3.17;;
2838;SDS011;1427;48.510;9.060;2024-03-22T03:54:40;48.23;;;2.70;;
2838;SDS011;1427;48.510;9.060;2024-03-22T03:57:07;47.80;;;2.90;;
2838;SDS011;1427;48.510;9.060;2024-03-22T03:59:33;50.47;;;3.37;;
2838;SDS011;1427;48.510;9.060;2024-03-22T04:02:00;48.77;;;3.00;;
2838;SDS011;1427;48.510;9.060;2024-03-22T04:04:26;51.03;;;5.83;;
2838;SDS011;1427;48.510;9.060;2024-03-22T04:06:54;50.40;;;3.43;;
2838;SDS011;1427;48.510;9.060;2024-03-22T04:09:20;52.00;;;3.97;;
2838;SDS011;1427;48.510;9.060;2024-03-22T04:11:48;48.37;;;3.37;;
2838;SDS011;1427;48.510;9.060;2024-03-22T04:14:14;49.97;;;3.53;;
2838;SDS011;1427;48.510;9.060;2024-03-22T04:16:41;54.03;;;3.10;;
2838;SDS011;1427;48.510;9.060;2024-03-22T04:19:07;47.30;;;3.57;;
2838;SDS011;1427;48.510;9.060;2024-03-22T04:21:34;46.90;;;3.00;;
2838;SDS011;1427;48.510;9.060;2024-03-22T04:24:04;49.90;;;3.63;;
2838;SDS011;1427;48.510;9.060;2024-03-22T04:26:31;49.00;;;2.90;;
2838;SDS011;1427;48.510;9.060;2024-03-22T04:28:57;45.57;;;2.03;;
2838;SDS011;1427;48.510;9.060;2024-03-22T04:31:24;46.67;;;2.77;;
2838;SDS011;1427;48.510;9.060;2024-03-22T04:33:51;47.70;;;2.70;;
2838;SDS011;1427;48.510;9.060;2024-03-22T04:36:18;50.20;;;3.80;;
2838;SDS011;1427;48.510;9.060;2024-03-22T04:38:44;52.10;;;3.87;;
2838;SDS011;1427;48.510;9.060;2024-03-22T04:41:12;48.50;;;2.87;;
2838;SDS011;1427;48.510;9.060;2024-03-22T04:43:39;47.60;;;3.00;;
2838;SDS011;1427;48.510;9.060;2024-03-22T04:46:06;46.40;;;2.93;;
2838;SDS011;1427;48.510;9.060;2024-03-22T04:48:33;49.07;;;3.70;;
2838;SDS011;1427;48.510;9.060;2024-03-22T04:51:00;46.00;;;2.73;;
2838;SDS011;1427;48.510;9.060;2024-03-22T04:53:29;45.80;;;2.43;;
2838;SDS011;1427;48.510;9.060;2024-03-22T04:55:56;51.20;;;4.30;;
2838;SDS011;1427;48.510;9.060;2024-03-22T04:58:23;51.60;;;2.90;;
2838;SDS011;1427;48.510;9.060;2024-03-22T05:00:55;51.60;;;4.30;;
2838;SDS011;1427;48.510;9.060;2024-03-22T05:03:22;46.00;;;2.50;;
2838;SDS011;1427;48.510;9.060;2024-03-22T05:05:50;47.30;;;3.20;;
2838;SDS011;1427;48.510;9.060;2024-03-22T05:08:16;45.97;;;2.30;;
2838;SDS011;1427;48.510;9.060;2024-03-22T05:10:43;46.77;;;3.10;;
2838;SDS011;1427;48.510;9.060;2024-03-22T05:13:09;51.23;;;3.20;;
2838;SDS011;1427;48.510;9.060;2024-03-22T05:15:38;46.53;;;2.70;;
2838;SDS011;1427;48.510;9.060;2024-03-22T05:18:04;50.30;;;3.33;;
2838;SDS011;1427;48.510;9.060;2024-03-22T05:20:31;46.67;;;2.83;;
2838;SDS011;1427;48.510;9.060;2024-03-22T05:22:58;46.77;;;2.47;;
2838;SDS011;1427;48.510;9.060;2024-03-22T05:25:25;47.77;;;2.77;;
2838;SDS011;1427;48.510;9.060;2024-03-22T05:27:51;47.80;;;4.13;;
2838;SDS011;1427;48.510;9.060;2024-03-22T05:30:18;55.30;;;4.00;;
2838;SDS011;1427;48.510;9.060;2024-03-22T05:32:46;47.10;;;4.47;;
2838;SDS011;1427;48.510;9.060;2024-03-22T05:35:14;48.17;;;4.00;;
2838;SDS011;1427;48.510;9.060;2024-03-22T05:37:41;47.20;;;5.20;;
2838;SDS011;1427;48.510;9.060;2024-03-22T05:40:08;49.57;;;4.40;;
2838;SDS011;1427;48.510;9.060;2024-03-22T05:42:36;56.43;;;5.60;;
2838;SDS011;1427;48.510;9.060;2024-03-22T05:45:03;49.33;;;4.47;;
2838;SDS011;1427;48.510;9.060;2024-03-22T05:47:29;46.97;;;3.60;;
2838;SDS011;1427;48.510;9.060;2024-03-22T05:49:58;48.60;;;5.33;;
2838;SDS011;1427;48.510;9.060;2024-03-22T05:52:24;51.90;;;4.97;;
2838;SDS011;1427;48.510;9.060;2024-03-22T05:54:51;48.10;;;4.63;;
2838;SDS011;1427;48.510;9.060;2024-03-22T05:57:17;49.67;;;5.57;;
2838;SDS011;1427;48.510;9.060;2024-03-22T05:59:45;47.30;;;4.20;;
2838;SDS011;1427;48.510;9.060;2024-03-22T06:02:11;49.90;;;4.97;;
2838;SDS011;1427;48.510;9.060;2024-03-22T06:04:38;48.60;;;4.77;;
2838;SDS011;1427;48.510;9.060;2024-03-22T06:07:06;48.20;;;4.30;;
2838;SDS011;1427;48.510;9.060;2024-03-22T06:09:33;52.83;;;6.07;;
2838;SDS011;1427;48.510;9.060;2024-03-22T06:12:02;48.37;;;5.80;;
2838;SDS011;1427;48.510;9.060;2024-03-22T06:14:30;54.70;;;5.70;;
2838;SDS011;1427;48.510;9.060;2024-03-22T06:16:56;52.50;;;6.20;;
2838;SDS011;1427;48.510;9.060;2024-03-22T06:19:24;51.80;;;5.50;;
2838;SDS011;1427;48.510;9.060;2024-03-22T06:21:50;47.40;;;3.60;;
2838;SDS011;1427;48.510;9.060;2024-03-22T06:24:18;48.13;;;4.57;;
2838;SDS011;1427;48.510;9.060;2024-03-22T06:26:44;50.40;;;5.60;;
2838;SDS011;1427;48.510;9.060;2024-03-22T06:29:11;50.33;;;5.20;;
2838;SDS011;1427;48.510;9.060;2024-03-22T06:31:38;56.03;;;5.10;;
2838;SDS011;1427;48.510;9.060;2024-03-22T06:34:05;51.03;;;5.47;;
2838;SDS011;1427;48.510;9.060;2024-03-22T06:36:31;52.20;;;6.27;;
2838;SDS011;1427;48.510;9.060;2024-03-22T06:38:58;54.10;;;6.00;;
2838;SDS011;1427;48.510;9.060;2024-03-22T06:41:27;54.77;;;6.80;;
2838;SDS011;1427;48.510;9.060;2024-03-22T06:43:54;52.50;;;6.50;;
2838;SDS011;1427;48.510;9.060;2024-03-22T06:46:21;61.13;;;6.67;;
2838;SDS011;1427;48.510;9.060;2024-03-22T06:48:48;51.97;;;5.00;;
2838;SDS011;1427;48.510;9.060;2024-03-22T06:51:14;50.33;;;6.00;;
2838;SDS011;1427;48.510;9.060;2024-03-22T06:53:41;50.73;;;5.37;;
2838;SDS011;1427;48.510;9.060;2024-03-22T06:56:07;50.10;;;5.37;;
2838;SDS011;1427;48.510;9.060;2024-03-22T06:58:38;50.50;;;5.70;;
2838;SDS011;1427;48.510;9.060;2024-03-22T07:01:04;54.73;;;7.40;;
2838;SDS011;1427;48.510;9.060;2024-03-22T07:03:31;51.90;;;6.50;;
2838;SDS011;1427;48.510;9.060;2024-03-22T07:05:58;52.03;;;6.60;;
2838;SDS011;1427;48.510;9.060;2024-03-22T07:08:25;52.20;;;5.77;;
2838;SDS011;1427;48.510;9.060;2024-03-22T07:10:53;59.00;;;6.80;;
2838;SDS011;1427;48.510;9.060;2024-03-22T07:13:19;53.17;;;7.33;;
2838;SDS011;1427;48.510;9.060;2024-03-22T07:15:48;55.00;;;7.20;;
2838;SDS011;1427;48.510;9.060;2024-03-22T07:18:14;54.83;;;6.63;;
2838;SDS011;1427;48.510;9.060;2024-03-22T07:20:41;51.60;;;6.10;;
2838;SDS011;1427;48.510;9.060;2024-03-22T07:23:08;53.33;;;5.87;;
2838;SDS011;1427;48.510;9.060;2024-03-22T07:25:35;52.97;;;6.40;;
2838;SDS011;1427;48.510;9.060;2024-03-22T07:28:01;55.13;;;7.80;;
2838;SDS011;1427;48.510;9.060;2024-03-22T07:30:28;50.60;;;6.97;;
2838;SDS011;1427;48.510;9.060;2024-03-22T07:32:56;54.47;;;6.93;;
2838;SDS011;1427;48.510;9.060;2024-03-22T07:35:23;54.47;;;9.53;;
2838;SDS011;1427;48.510;9.060;2024-03-22T07:37:50;52.37;;;6.20;;
2838;SDS011;1427;48.510;9.060;2024-03-22T07:40:17;52.10;;;5.47;;
2838;SDS011;1427;48.510;9.060;2024-03-22T07:42:43;51.13;;;6.00;;
2838;SDS011;1427;48.510;9.060;2024-03-22T07:45:10;57.60;;;7.77;;
2838;SDS011;1427;48.510;9.060;2024-03-22T07:47:41;57.40;;;6.87;;
2838;SDS011;1427;48.510;9.060;2024-03-22T07:50:10;51.77;;;6.00;;
2838;SDS011;1427;48.510;9.060;2024-03-22T07:52:36;57.10;;;8.47;;
2838;SDS011;1427;48.510;9.060;2024-03-22T07:55:03;55.70;;;7.00;;
2838;SDS011;1427;48.510;9.060;2024-03-22T07:57:30;52.33;;;7.53;;
2838;SDS011;1427;48.510;9.060;2024-03-22T07:59:57;54.10;;;6.00;;
2838;SDS011;1427;48.510;9.060;2024-03-22T08:02:23;50.27;;;5.83;;
2838;SDS011;1427;48.510;9.060;2024-03-22T08:04:50;52.10;;;6.10;;
2838;SDS011;1427;48.510;9.060;2024-03-22T08:07:19;53.97;;;6.70;;
2838;SDS011;1427;48.510;9.060;2024-03-22T08:09:46;53.97;;;6.60;;
2838;SDS011;1427;48.510;9.060;2024-03-22T08:12:12;57.13;;;7.13;;
2838;SDS011;1427;48.510;9.060;2024-03-22T08:14:39;51.60;;;7.03;;
2838;SDS011;1427;48.510;9.060;2024-03-22T08:17:06;52.60;;;6.30;;
2838;SDS011;1427;48.510;9.060;2024-03-22T08:19:34;56.20;;;7.30;;
2838;SDS011;1427;48.510;9.060;2024-03-22T08:22:00;51.07;;;6.27;;
2838;SDS011;1427;48.510;9.060;2024-03-22T08:24:29;52.10;;;6.80;;
2838;SDS011;1427;48.510;9.060;2024-03-22T08:26:56;51.90;;;6.53;;
2838;SDS011;1427;48.510;9.060;2024-03-22T08:29:23;57.63;;;8.00;;
2838;SDS011;1427;48.510;9.060;2024-03-22T08:31:49;51.90;;;6.97;;
2838;SDS011;1427;48.510;9.060;2024-03-22T08:34:16;57.87;;;7.07;;
2838;SDS011;1427;48.510;9.060;2024-03-22T08:36:42;51.30;;;6.63;;
2838;SDS011;1427;48.510;9.060;2024-03-22T08:39:09;54.93;;;6.57;;
2838;SDS011;1427;48.510;9.060;2024-03-22T08:41:37;51.37;;;5.70;;
2838;SDS011;1427;48.510;9.060;2024-03-22T08:44:04;52.53;;;7.30;;
2838;SDS011;1427;48.510;9.060;2024-03-22T08:46:30;53.83;;;6.53;;
2838;SDS011;1427;48.510;9.060;2024-03-22T08:48:58;56.60;;;6.70;;
2838;SDS011;1427;48.510;9.060;2024-03-22T08:51:24;57.53;;;6.03;;
2838;SDS011;1427;48.510;9.060;2024-03-22T08:53:51;51.10;;;6.10;;
2838;SDS011;1427;48.510;9.060;2024-03-22T08:56:18;51.37;;;6.27;;
2838;SDS011;1427;48.510;9.060;2024-03-22T08:58:46;51.83;;;6.70;;
2838;SDS011;1427;48.510;9.060;2024-03-22T09:01:12;52.00;;;5.83;;
2838;SDS011;1427;48.510;9.060;2024-03-22T09:03:39;50.77;;;6.43;;
2838;SDS011;1427;48.510;9.060;2024-03-22T09:06:05;53.80;;;7.17;;
2838;SDS011;1427;48.510;9.060;2024-03-22T09:08:33;53.20;;;5.97;;
2838;SDS011;1427;48.510;9.060;2024-03-22T09:10:59;52.77;;;6.50;;
2838;SDS011;1427;48.510;9.060;2024-03-22T09:13:27;52.30;;;6.33;;
2838;SDS011;1427;48.510;9.060;2024-03-22T09:15:57;51.00;;;6.00;;
2838;SDS011;1427;48.510;9.060;2024-03-22T09:18:25;54.80;;;7.23;;
2838;SDS011;1427;48.510;9.060;2024-03-22T09:20:51;55.80;;;6.57;;
2838;SDS011;1427;48.510;9.060;2024-03-22T09:23:19;53.10;;;6.80;;
2838;SDS011;1427;48.510;9.060;2024-03-22T09:25:45;52.00;;;7.03;;
2838;SDS011;1427;48.510;9.060;2024-03-22T09:28:12;54.40;;;5.57;;
2838;SDS011;1427;48.510;9.060;2024-03-22T09:30:39;56.63;;;6.63;;
2838;SDS011;1427;48.510;9.060;2024-03-22T09:33:07;52.27;;;6.70;;
2838;SDS011;1427;48.510;9.060;2024-03-22T09:35:34;55.20;;;6.10;;
2838;SDS011;1427;48.510;9.060;2024-03-22T09:38:01;52.50;;;6.47;;
2838;SDS011;1427;48.510;9.060;2024-03-22T09:40:28;51.70;;;6.27;;
2838;SDS011;1427;48.510;9.060;2024-03-22T09:42:58;52.17;;;6.53;;
2838;SDS011;1427;48.510;9.060;2024-03-22T09:45:28;51.20;;;5.60;;
2838;SDS011;1427;48.510;9.060;2024-03-22T09:47:56;53.73;;;6.70;;
2838;SDS011;1427;48.510;9.060;2024-03-22T09:50:24;51.97;;;5.73;;
2838;SDS011;1427;48.510;9.060;2024-03-22T09:52:52;51.30;;;5.87;;
2838;SDS011;1427;48.510;9.060;2024-03-22T09:55:19;51.30;;;5.83;;
2838;SDS011;1427;48.510;9.060;2024-03-22T09:57:49;56.23;;;7.20;;
2838;SDS011;1427;48.510;9.060;2024-03-22T10:00:17;52.97;;;5.80;;
2838;SDS011;1427;48.510;9.060;2024-03-22T10:02:46;51.70;;;5.33;;
2838;SDS011;1427;48.510;9.060;2024-03-22T10:05:12;54.30;;;5.97;;
2838;SDS011;1427;48.510;9.060;2024-03-22T10:07:41;54.50;;;5.63;;
2838;SDS011;1427;48.510;9.060;2024-03-22T10:10:09;56.63;;;7.57;;
2838;SDS011;1427;48.510;9.060;2024-03-22T10:12:37;50.63;;;5.93;;
2838;SDS011;1427;48.510;9.060;2024-03-22T10:15:04;52.40;;;5.30;;
2838;SDS011;1427;48.510;9.060;2024-03-22T10:17:34;51.87;;;4.80;;
2838;SDS011;1427;48.510;9.060;2024-03-22T10:20:00;53.13;;;6.50;;
2838;SDS011;1427;48.510;9.060;2024-03-22T10:22:27;52.67;;;5.60;;
2838;SDS011;1427;48.510;9.060;2024-03-22T10:24:55;50.67;;;6.00;;
2838;SDS011;1427;48.510;9.060;2024-03-22T10:27:26;53.30;;;5.97;;
2838;SDS011;1427;48.510;9.060;2024-03-22T10:29:53;50.67;;;6.23;;
2838;SDS011;1427;48.510;9.060;2024-03-22T10:32:20;50.57;;;5.80;;
2838;SDS011;1427;48.510;9.060;2024-03-22T10:34:46;55.77;;;6.50;;
2838;SDS011;1427;48.510;9.060;2024-03-22T10:37:15;54.70;;;6.57;;
2838;SDS011;1427;48.510;9.060;2024-03-22T10:39:42;51.60;;;5.53;;
2838;SDS011;1427;48.510;9.060;2024-03-22T10:42:11;51.57;;;5.90;;
2838;SDS011;1427;48.510;9.060;2024-03-22T10:44:37;52.43;;;5.73;;
2838;SDS011;1427;48.510;9.060;2024-03-22T10:47:05;51.33;;;4.97;;
2838;SDS011;1427;48.510;9.060;2024-03-22T10:49:36;49.60;;;4.77;;
2838;SDS011;1427;48.510;9.060;2024-03-22T10:52:04;51.20;;;5.20;;
2838;SDS011;1427;48.510;9.060;2024-03-22T10:54:35;52.70;;;5.00;;
2838;SDS011;1427;48.510;9.060;2024-03-22T10:57:04;48.80;;;4.77;;
2838;SDS011;1427;48.510;9.060;2024-03-22T10:59:35;52.03;;;6.00;;
2838;SDS011;1427;48.510;9.060;2024-03-22T11:02:02;51.27;;;5.17;;
2838;SDS011;1427;48.510;9.060;2024-03-22T11:04:32;50.97;;;5.40;;
2838;SDS011;1427;48.510;9.060;2024-03-22T11:06:59;49.60;;;5.03;;
2838;SDS011;1427;48.510;9.060;2024-03-22T11:09:28;49.30;;;4.33;;
2838;SDS011;1427;48.510;9.060;2024-03-22T11:11:55;52.10;;;5.00;;
2838;SDS011;1427;48.510;9.060;2024-03-22T11:14:24;52.23;;;6.50;;
2838;SDS011;1427;48.510;9.060;2024-03-22T11:16:51;54.90;;;5.23;;
2838;SDS011;1427;48.510;9.060;2024-03-22T11:19:19;52.40;;;8.33;;
2838;SDS011;1427;48.510;9.060;2024-03-22T11:21:45;53.07;;;6.30;;
2838;SDS011;1427;48.510;9.060;2024-03-22T11:24:12;53.03;;;5.73;;
2838;SDS011;1427;48.510;9.060;2024-03-22T11:26:38;49.80;;;4.87;;
2838;SDS011;1427;48.510;9.060;2024-03-22T11:29:05;49.37;;;4.13;;
2838;SDS011;1427;48.510;9.060;2024-03-22T11:31:31;53.10;;;6.70;;
2838;SDS011;1427;48.510;9.060;2024-03-22T11:34:00;49.97;;;5.33;;
2838;SDS011;1427;48.510;9.060;2024-03-22T11:36:27;49.77;;;4.67;;
2838;SDS011;1427;48.510;9.060;2024-03-22T11:38:55;49.47;;;5.17;;
2838;SDS011;1427;48.510;9.060;2024-03-22T11:41:22;51.10;;;4.70;;
2838;SDS011;1427;48.510;9.060;2024-03-22T11:43:56;51.47;;;6.30;;
2838;SDS011;1427;48.510;9.060;2024-03-22T11:46:24;49.80;;;4.77;;
2838;SDS011;1427;48.510;9.060;2024-03-22T11:48:52;49.53;;;4.37;;
2838;SDS011;1427;48.510;9.060;2024-03-22T11:51:20;51.87;;;4.80;;
2838;SDS011;1427;48.510;9.060;2024-03-22T11:53:50;48.50;;;4.23;;
2838;SDS011;1427;48.510;9.060;2024-03-22T11:56:17;52.93;;;4.47;;
2838;SDS011;1427;48.510;9.060;2024-03-22T11:58:45;50.27;;;4.73;;
2838;SDS011;1427;48.510;9.060;2024-03-22T12:01:13;50.77;;;5.47;;
2838;SDS011;1427;48.510;9.060;2024-03-22T12:03:43;49.00;;;4.90;;
2838;SDS011;1427;48.510;9.060;2024-03-22T12:06:09;51.50;;;5.47;;
2838;SDS011;1427;48.510;9.060;2024-03-22T12:08:38;49.60;;;4.33;;
2838;SDS011;1427;48.510;9.060;2024-03-22T12:11:06;48.10;;;4.50;;
2838;SDS011;1427;48.510;9.060;2024-03-22T12:13:34;49.17;;;4.60;;
2838;SDS011;1427;48.510;9.060;2024-03-22T12:16:01;48.57;;;4.70;;
2838;SDS011;1427;48.510;9.060;2024-03-22T12:18:30;48.57;;;4.73;;
2838;SDS011;1427;48.510;9.060;2024-03-22T12:20:56;47.73;;;4.50;;
2838;SDS011;1427;48.510;9.060;2024-03-22T12:23:23;53.97;;;4.97;;
2838;SDS011;1427;48.510;9.060;2024-03-22T12:25:52;48.40;;;4.60;;
2838;SDS011;1427;48.510;9.060;2024-03-22T12:28:20;48.67;;;4.87;;
2838;SDS011;1427;48.510;9.060;2024-03-22T12:30:47;49.40;;;4.50;;
2838;SDS011;1427;48.510;9.060;2024-03-22T12:33:14;49.20;;;4.20;;
2838;SDS011;1427;48.510;9.060;2024-03-22T12:35:41;48.87;;;5.27;;
2838;SDS011;1427;48.510;9.060;2024-03-22T12:38:08;49.40;;;3.53;;
2838;SDS011;1427;48.510;9.060;2024-03-22T12:40:36;47.50;;;3.97;;
2838;SDS011;1427;48.510;9.060;2024-03-22T12:43:04;47.77;;;4.70;;
2838;SDS011;1427;48.510;9.060;2024-03-22T12:45:30;47.37;;;3.87;;
2838;SDS011;1427;48.510;9.060;2024-03-22T12:47:59;47.27;;;3.60;;
2838;SDS011;1427;48.510;9.060;2024-03-22T12:50:25;48.30;;;4.90;;
2838;SDS011;1427;48.510;9.060;2024-03-22T12:52:53;48.23;;;3.90;;
2838;SDS011;1427;48.510;9.060;2024-03-22T12:55:19;48.33;;;3.73;;
2838;SDS011;1427;48.510;9.060;2024-03-22T12:57:46;49.60;;;4.27;;
2838;SDS011;1427;48.510;9.060;2024-03-22T13:00:14;54.97;;;4.87;;
2838;SDS011;1427;48.510;9.060;2024-03-22T13:02:43;48.73;;;4.00;;
2838;SDS011;1427;48.510;9.060;2024-03-22T13:05:10;47.77;;;4.37;;
2838;SDS011;1427;48.510;9.060;2024-03-22T13:07:37;50.27;;;3.60;;
2838;SDS011;1427;48.510;9.060;2024-03-22T13:10:03;47.10;;;3.93;;
2838;SDS011;1427;48.510;9.060;2024-03-22T13:12:31;48.37;;;4.70;;
2838;SDS011;1427;48.510;9.060;2024-03-22T13:14:59;49.73;;;4.20;;
2838;SDS011;1427;48.510;9.060;2024-03-22T13:17:27;50.27;;;3.60;;
2838;SDS011;1427;48.510;9.060;2024-03-22T13:19:53;47.63;;;4.30;;
2838;SDS011;1427;48.510;9.060;2024-03-22T13:22:21;47.67;;;3.93;;
2838;SDS011;1427;48.510;9.060;2024-03-22T13:24:47;50.77;;;4.80;;
2838;SDS011;1427;48.510;9.060;2024-03-22T13:27:15;49.17;;;4.73;;
2838;SDS011;1427;48.510;9.060;2024-03-22T13:29:42;48.70;;;4.30;;
2838;SDS011;1427;48.510;9.060;2024-03-22T13:32:09;49.97;;;4.03;;
2838;SDS011;1427;48.510;9.060;2024-03-22T13:34:37;47.33;;;3.77;;
2838;SDS011;1427;48.510;9.060;2024-03-22T13:37:04;47.57;;;3.43;;
2838;SDS011;1427;48.510;9.060;2024-03-22T13:39:31;49.60;;;4.17;;
2838;SDS011;1427;48.510;9.060;2024-03-22T13:41:58;50.57;;;4.80;;
2838;SDS011;1427;48.510;9.060;2024-03-22T13:44:24;48.67;;;4.33;;
2838;SDS011;1427;48.510;9.060;2024-03-22T13:46:52;58.43;;;4.17;;
2838;SDS011;1427;48.510;9.060;2024-03-22T13:49:19;46.93;;;3.67;;
2838;SDS011;1427;48.510;9.060;2024-03-22T13:51:48;48.70;;;4.73;;
2838;SDS011;1427;48.510;9.060;2024-03-22T13:54:14;48.90;;;4.40;;
2838;SDS011;1427;48.510;9.060;2024-03-22T13:56:42;48.13;;;4.23;;
2838;SDS011;1427;48.510;9.060;2024-03-22T13:59:08;47.70;;;3.83;;
2838;SDS011;1427;48.510;9.060;2024-03-22T14:01:36;48.60;;;4.50;;
2838;SDS011;1427;48.510;9.060;2024-03-22T14:04:03;50.87;;;3.87;;
2838;SDS011;1427;48.510;9.060;2024-03-22T14:06:30;52.30;;;4.23;;
2838;SDS011;1427;48.510;9.060;2024-03-22T14:08:59;50.77;;;3.63;;
2838;SDS011;1427;48.510;9.060;2024-03-22T14:11:27;47.93;;;4.43;;
2838;SDS011;1427;48.510;9.060;2024-03-22T14:13:53;49.20;;;5.33;;
2838;SDS011;1427;48.510;9.060;2024-03-22T14:16:20;46.60;;;3.43;;
2838;SDS011;1427;48.510;9.060;2024-03-22T14:18:46;48.10;;;4.30;;
2838;SDS011;1427;48.510;9.060;2024-03-22T14:21:14;47.40;;;3.87;;
2838;SDS011;1427;48.510;9.060;2024-03-22T14:23:44;47.60;;;3.40;;
2838;SDS011;1427;48.510;9.060;2024-03-22T14:26:13;47.23;;;4.17;;
2838;SDS011;1427;48.510;9.060;2024-03-22T14:28:41;47.97;;;4.20;;
2838;SDS011;1427;48.510;9.060;2024-03-22T14:31:08;46.40;;;3.27;;
2838;SDS011;1427;48.510;9.060;2024-03-22T14:33:35;47.80;;;3.73;;
2838;SDS011;1427;48.510;9.060;2024-03-22T14:36:03;47.90;;;4.57;;
2838;SDS011;1427;48.510;9.060;2024-03-22T14:38:30;46.20;;;3.23;;
2838;SDS011;1427;48.510;9.060;2024-03-22T14:40:57;48.53;;;4.67;;
2838;SDS011;1427;48.510;9.060;2024-03-22T14:43:26;48.20;;;4.50;;
2838;SDS011;1427;48.510;9.060;2024-03-22T14:45:54;46.67;;;3.80;;
2838;SDS011;1427;48.510;9.060;2024-03-22T14:48:20;46.87;;;3.53;;
2838;SDS011;1427;48.510;9.060;2024-03-22T14:50:47;46.57;;;3.47;;
2838;SDS011;1427;48.510;9.060;2024-03-22T14:53:14;47.20;;;3.90;;
2838;SDS011;1427;48.510;9.060;2024-03-22T14:55:50;46.57;;;3.20;;
2838;SDS011;1427;48.510;9.060;2024-03-22T14:58:17;47.77;;;4.70;;
2838;SDS011;1427;48.510;9.060;2024-03-22T15:00:51;49.53;;;4.03;;